Grant County International Airport

Airport
ICAO code: 
KMWH
IATA Code: 
MWH
Summary
ICAO Region: 
NAM
Territory: 
Location: 
Moses Lake, Washington
Serving: 
Moses Lake
Elevation: 
1189 ft
Coordinates: 
Aerial View: 
47° 12' 16.499" N, 119° 18' 59.499" W
Metar
Observation
KMWH 021452Z 27009KT 10SM CLR 10/02 A3004 RMK AO2 SLP173 T01000017 51016
Station
Moses Lake, Grant County Airport
Date/Time
2021-12-02 14:52:00
Wind direction
270°
Wind speed
09 kts
Lowest cloud amount
n/a
Temperature
10°C
Dew point
1.7°C
Humidity
56%
Weather condition
n/a

Grant County International Airport is a public use airport located 9.7 km northwest of the central business district of Moses Lake, a city in Grant County, Washington, United States.

Runways

Designator Length Width Surface Rops
14R/32L 895 23 CON Yes/Yes
18/36 1008 23 ASP Yes/Yes
9/27 1067 27 CON Yes/Yes
4/22 3048 30 PEM Yes/Yes
14L/32R 4116 61 PEM Yes/Yes
Airport map: 
Aerial View: 

SKYbrary Partners:

Safety knowledge contributed by: